Time;durP1;ratioP1;P1;durP2;ratioP2;P2;SDS_P1;SDS_P2;PMS_P1;PMS_P2;Temp;Humidity;BMP_temperature;BMP_pressure;BME280_temperature;BME280_humidity;BME280_pressure;Samples;Min_cycle;Max_cycle;Signal;HPM_P1;HPM_P2
2023/12/12 00:07:01;;;;;;;0.10;0.10;;;;;;;;;;4894617;29;20129;-77
2023/12/12 00:10:22;;;;;;;0.10;0.10;;;;;;;;;;4894770;29;20519;-77
2023/12/12 00:13:41;;;;;;;0.10;0.10;;;;;;;;;;4926725;28;20492;-77
2023/12/12 00:20:28;;;;;;;0.10;0.10;;;;;;;;;;5012174;28;20129;-76
2023/12/12 00:27:03;;;;;;;0.20;0.20;;;;;;;;;;5029634;28;20467;-75
2023/12/12 00:50:48;;;;;;;0.17;0.17;;;;;;;;;;4893874;29;20075;-78
2023/12/12 00:53:20;;;;;;;0.20;0.20;;;;;;;;;;4919942;29;20436;-78
2023/12/12 00:56:03;;;;;;;0.10;0.10;;;;;;;;;;4935906;29;20111;-78
2023/12/12 01:02:59;;;;;;;0.10;0.10;;;;;;;;;;4897900;29;20100;-76
2023/12/12 01:05:47;;;;;;;0.10;0.10;;;;;;;;;;4897110;29;20553;-76
2023/12/12 01:15:36;;;;;;;0.17;0.17;;;;;;;;;;4844665;29;20091;-76
2023/12/12 01:50:53;;;;;;;0.20;0.20;;;;;;;;;;4786763;30;20115;-76
2023/12/12 02:57:11;;;;;;;0.10;0.10;;;;;;;;;;4941684;29;20560;-74
2023/12/12 03:14:37;;;;;;;0.68;0.55;;;;;;;;;;5017088;28;20102;-75
2023/12/12 03:17:38;;;;;;;0.10;0.10;;;;;;;;;;4918508;29;20119;-75
2023/12/12 03:20:53;;;;;;;0.10;0.10;;;;;;;;;;4903580;29;20100;-75
2023/12/12 03:31:15;;;;;;;0.10;0.10;;;;;;;;;;4883173;29;20072;-75
2023/12/12 03:45:50;;;;;;;0.32;0.32;;;;;;;;;;4832981;29;20144;-75
2023/12/12 04:13:56;;;;;;;;;;;;;;;;;;;;;
2023/12/12 04:20:51;;;;;;;0.10;0.10;;;;;;;;;;4913534;29;20046;-75
2023/12/12 04:27:35;;;;;;;0.38;0.38;;;;;;;;;;4913028;29;20396;-76
2023/12/12 05:06:15;;;;;;;0.10;0.10;;;;;;;;;;4837858;29;20099;-75
2023/12/12 05:37:35;;;;;;;0.10;0.10;;;;;;;;;;4874523;29;20413;-73
2023/12/12 05:41:26;;;;;;;0.10;0.10;;;;;;;;;;4811653;29;20391;-74
2023/12/12 05:55:05;;;;;;;0.10;0.10;;;;;;;;;;4800836;29;20057;-74
2023/12/12 06:05:55;;;;;;;0.10;0.10;;;;;;;;;;4784583;29;20058;-74
2023/12/12 06:08:49;;;;;;;0.40;0.40;;;;;;;;;;4800391;29;20099;-75
2023/12/12 06:21:16;;;;;;;0.10;0.10;;;;;;;;;;4818651;29;20107;-77
2023/12/12 06:41:37;;;;;;;0.10;0.10;;;;;;;;;;4812204;29;20151;-75
2023/12/12 07:02:02;;;;;;;;;;;;;;;;;;;;;
2023/12/12 07:08:57;;;;;;;0.20;0.20;;;;;;;;;;4933864;29;20051;-77
2023/12/12 07:12:43;;;;;;;0.28;0.28;;;;;;;;;;4933717;29;20047;-75
2023/12/12 07:19:35;;;;;;;4.72;4.38;;;;;;;;;;4914656;29;20076;-75
2023/12/12 07:29:59;;;;;;;0.10;0.10;;;;;;;;;;4896747;29;20134;-77
2023/12/12 07:33:30;;;;;;;0.10;0.10;;;;;;;;;;4865154;29;20512;-76
2023/12/12 07:43:27;;;;;;;0.20;0.20;;;;;;;;;;4934688;29;20047;-76
2023/12/12 07:56:41;;;;;;;0.20;0.20;;;;;;;;;;5098467;28;20054;-76
2023/12/12 07:59:26;;;;;;;0.20;0.20;;;;;;;;;;5099580;28;20387;-75
2023/12/12 08:02:43;;;;;;;0.10;0.10;;;;;;;;;;5100850;28;20123;-75
2023/12/12 08:08:58;;;;;;;1.30;1.30;;;;;;;;;;5062138;28;20456;-75
2023/12/12 08:11:45;;;;;;;0.17;0.17;;;;;;;;;;5095951;28;20021;-75
2023/12/12 08:14:34;;;;;;;0.30;0.20;;;;;;;;;;5094305;28;20450;-76
2023/12/12 08:17:08;;;;;;;0.10;0.10;;;;;;;;;;5087490;28;20051;-76
2023/12/12 08:19:34;;;;;;;0.10;0.10;;;;;;;;;;5107040;28;20039;-78
2023/12/12 08:22:02;;;;;;;0.10;0.10;;;;;;;;;;5104779;28;20020;-76
2023/12/12 08:28:11;;;;;;;0.10;0.10;;;;;;;;;;5046648;28;20510;-76
2023/12/12 08:38:33;;;;;;;0.10;0.10;;;;;;;;;;5101889;28;20055;-77
2023/12/12 08:41:15;;;;;;;0.10;0.10;;;;;;;;;;5002010;28;20049;-76
2023/12/12 08:44:01;;;;;;;0.10;0.10;;;;;;;;;;5087639;28;20477;-75
2023/12/12 08:46:32;;;;;;;0.10;0.10;;;;;;;;;;5102520;28;20035;-75
2023/12/12 08:53:29;;;;;;;;;;;;;;;;;;;;;
2023/12/12 09:18:06;;;;;;;0.10;0.10;;;;;;;;;;4823575;29;20125;-75
2023/12/12 09:24:23;;;;;;;0.10;0.10;;;;;;;;;;4840971;29;20056;-71
2023/12/12 09:33:52;;;;;;;1.00;1.00;;;;;;;;;;5014130;28;20049;-72
2023/12/12 09:36:26;;;;;;;0.20;0.20;;;;;;;;;;5070096;28;20020;-75
2023/12/12 09:38:57;;;;;;;0.10;0.10;;;;;;;;;;5068458;28;20087;-74
2023/12/12 09:41:25;;;;;;;0.20;0.20;;;;;;;;;;5069576;28;20022;-72
2023/12/12 09:43:53;;;;;;;0.20;0.20;;;;;;;;;;5069573;28;20039;-73
2023/12/12 09:50:07;;;;;;;0.20;0.20;;;;;;;;;;5069752;28;20232;-73
2023/12/12 09:52:34;;;;;;;0.20;0.20;;;;;;;;;;5068591;28;20047;-72
2023/12/12 09:55:05;;;;;;;0.20;0.20;;;;;;;;;;5068143;28;20032;-71
2023/12/12 09:57:45;;;;;;;0.20;0.20;;;;;;;;;;5068816;28;20471;-73
2023/12/12 10:00:12;;;;;;;1.40;0.75;;;;;;;;;;5089497;28;20031;-72
2023/12/12 10:02:40;;;;;;;5.63;4.32;;;;;;;;;;5088693;28;20115;-71
2023/12/12 10:05:09;;;;;;;0.20;0.20;;;;;;;;;;5089009;28;20031;-74
2023/12/12 10:07:36;;;;;;;3.63;0.60;;;;;;;;;;5088951;28;20040;-74
2023/12/12 10:10:30;;;;;;;2.25;2.05;;;;;;;;;;5088782;28;20067;-72
2023/12/12 10:12:56;;;;;;;0.40;0.40;;;;;;;;;;5089448;28;20036;-72
2023/12/12 10:15:24;;;;;;;6.28;5.95;;;;;;;;;;5070531;28;20063;-72
2023/12/12 10:17:57;;;;;;;0.17;0.17;;;;;;;;;;5088909;28;20036;-71
2023/12/12 10:20:35;;;;;;;0.13;0.13;;;;;;;;;;5071732;28;20024;-75
2023/12/12 10:23:04;;;;;;;12.75;1.30;;;;;;;;;;5054679;28;20044;-71
2023/12/12 10:25:32;;;;;;;0.22;0.22;;;;;;;;;;5100592;28;20114;-75
2023/12/12 10:27:58;;;;;;;2.53;2.00;;;;;;;;;;5102399;28;20027;-72
2023/12/12 10:30:24;;;;;;;0.30;0.30;;;;;;;;;;5090066;28;20695;-73
2023/12/12 10:32:51;;;;;;;0.15;0.15;;;;;;;;;;5108811;28;20114;-73
2023/12/12 10:35:20;;;;;;;0.75;0.65;;;;;;;;;;5108476;28;20059;-73
2023/12/12 10:37:47;;;;;;;;;;;;;;;;;;5109227;28;20118;-75
2023/12/12 10:40:17;;;;;;;0.15;0.15;;;;;;;;;;5107167;28;19955;-74
2023/12/12 10:42:44;;;;;;;0.43;0.40;;;;;;;;;;5108416;28;20166;-72
2023/12/12 10:45:12;;;;;;;0.22;0.22;;;;;;;;;;5108573;28;20470;-74
2023/12/12 10:47:45;;;;;;;0.90;0.68;;;;;;;;;;5108280;28;20030;-71
2023/12/12 10:50:14;;;;;;;0.38;0.38;;;;;;;;;;5090155;28;20031;-73
2023/12/12 10:52:43;;;;;;;1.50;1.10;;;;;;;;;;5108334;28;20043;-73
2023/12/12 10:55:10;;;;;;;2.05;1.95;;;;;;;;;;5107963;28;20120;-72
2023/12/12 10:57:38;;;;;;;7.72;5.22;;;;;;;;;;5108199;28;20036;-73
2023/12/12 11:07:01;;;;;;;0.10;0.10;;;;;;;;;;5103015;28;20385;-73
2023/12/12 11:09:27;;;;;;;0.20;0.20;;;;;;;;;;5104705;28;20031;-72
2023/12/12 11:11:53;;;;;;;7.97;1.63;;;;;;;;;;5088196;28;20031;-73
2023/12/12 11:14:21;;;;;;;2.65;1.63;;;;;;;;;;5088367;28;20027;-73
2023/12/12 11:16:48;;;;;;;1.30;0.93;;;;;;;;;;5106967;28;20055;-71
2023/12/12 11:19:17;;;;;;;0.30;0.30;;;;;;;;;;5106686;28;20035;-73
2023/12/12 11:21:46;;;;;;;3.92;1.95;;;;;;;;;;5106757;28;20031;-72
2023/12/12 11:24:16;;;;;;;5.30;1.80;;;;;;;;;;5088152;28;20027;-75
2023/12/12 11:26:44;;;;;;;4.60;1.60;;;;;;;;;;5089249;28;20027;-74
2023/12/12 11:29:10;;;;;;;0.90;0.52;;;;;;;;;;5106415;28;20038;-73
2023/12/12 11:31:36;;;;;;;0.35;0.35;;;;;;;;;;5106940;28;20032;-72
2023/12/12 11:34:08;;;;;;;0.20;0.20;;;;;;;;;;5106068;28;20034;-74
2023/12/12 11:36:49;;;;;;;0.20;0.20;;;;;;;;;;5087850;28;20108;-74
2023/12/12 11:39:37;;;;;;;0.20;0.20;;;;;;;;;;5106179;28;20032;-75
2023/12/12 11:42:15;;;;;;;0.57;0.57;;;;;;;;;;5106545;28;20023;-73
2023/12/12 11:44:49;;;;;;;0.20;0.20;;;;;;;;;;5106130;28;20377;-73
2023/12/12 11:47:15;;;;;;;0.30;0.30;;;;;;;;;;5104942;28;20027;-74
2023/12/12 11:49:41;;;;;;;0.77;0.77;;;;;;;;;;5106271;28;20026;-72
2023/12/12 11:52:07;;;;;;;0.65;0.65;;;;;;;;;;5105813;28;20106;-73
2023/12/12 11:54:33;;;;;;;0.28;0.28;;;;;;;;;;5106242;28;20461;-73
2023/12/12 11:57:00;;;;;;;0.30;0.30;;;;;;;;;;5106496;28;20012;-74
2023/12/12 11:59:26;;;;;;;1.70;1.17;;;;;;;;;;5104024;28;20455;-72
2023/12/12 12:01:52;;;;;;;4.95;1.80;;;;;;;;;;5104692;28;20061;-74
2023/12/12 12:04:18;;;;;;;0.63;0.40;;;;;;;;;;5086000;28;20351;-73
2023/12/12 12:06:44;;;;;;;0.57;0.55;;;;;;;;;;5104777;28;20038;-72
2023/12/12 12:09:11;;;;;;;8.30;1.42;;;;;;;;;;5104030;28;20553;-74
2023/12/12 12:11:37;;;;;;;0.20;0.20;;;;;;;;;;5104177;28;20032;-74
2023/12/12 12:14:03;;;;;;;0.30;0.30;;;;;;;;;;5105599;28;20033;-73
2023/12/12 12:16:29;;;;;;;1.23;1.13;;;;;;;;;;5106066;28;20561;-73
2023/12/12 12:18:55;;;;;;;11.07;1.50;;;;;;;;;;5106088;28;20054;-73
2023/12/12 12:21:26;;;;;;;6.35;5.78;;;;;;;;;;5105498;28;20023;-72
2023/12/12 12:23:52;;;;;;;2.38;1.48;;;;;;;;;;5105344;28;20028;-73
2023/12/12 12:26:19;;;;;;;0.95;0.60;;;;;;;;;;5105967;28;20035;-73
2023/12/12 12:28:45;;;;;;;20.90;1.50;;;;;;;;;;5106447;28;20114;-71
2023/12/12 12:31:10;;;;;;;0.20;0.20;;;;;;;;;;5088060;28;20489;-75
2023/12/12 12:33:37;;;;;;;0.20;0.20;;;;;;;;;;5106333;28;20027;-73
2023/12/12 12:36:03;;;;;;;0.85;0.35;;;;;;;;;;5109813;28;20028;-73
2023/12/12 12:38:31;;;;;;;0.73;0.63;;;;;;;;;;5109383;28;20162;-73
2023/12/12 12:40:56;;;;;;;0.20;0.20;;;;;;;;;;5091800;28;20027;-72
2023/12/12 12:43:22;;;;;;;0.25;0.25;;;;;;;;;;5109370;28;20033;-72
2023/12/12 12:45:56;;;;;;;0.22;0.22;;;;;;;;;;5109313;28;20042;-72
2023/12/12 12:48:22;;;;;;;1.83;1.08;;;;;;;;;;5109580;28;20032;-76
2023/12/12 12:50:48;;;;;;;0.30;0.30;;;;;;;;;;5109285;28;20046;-72
2023/12/12 12:53:14;;;;;;;0.20;0.20;;;;;;;;;;5109836;28;20035;-72
2023/12/12 12:55:42;;;;;;;0.77;0.77;;;;;;;;;;5109436;28;20027;-74
2023/12/12 12:58:11;;;;;;;0.22;0.22;;;;;;;;;;5109214;28;20348;-73
2023/12/12 13:00:36;;;;;;;4.25;2.22;;;;;;;;;;5109004;28;20027;-72
2023/12/12 13:03:03;;;;;;;0.20;0.20;;;;;;;;;;5109377;28;20512;-73
2023/12/12 13:05:29;;;;;;;1.38;1.27;;;;;;;;;;5109593;28;20024;-73
2023/12/12 13:07:55;;;;;;;0.20;0.20;;;;;;;;;;5109151;28;20032;-73
2023/12/12 13:10:20;;;;;;;0.20;0.20;;;;;;;;;;5108311;28;20030;-72
2023/12/12 13:12:46;;;;;;;0.20;0.20;;;;;;;;;;5090562;28;20019;-73
2023/12/12 13:15:12;;;;;;;0.22;0.22;;;;;;;;;;5108799;28;20039;-73
2023/12/12 13:17:37;;;;;;;0.20;0.20;;;;;;;;;;5109200;28;20079;-72
2023/12/12 13:20:10;;;;;;;0.40;0.40;;;;;;;;;;5108795;28;20451;-72
2023/12/12 13:22:40;;;;;;;0.20;0.20;;;;;;;;;;5108521;28;20039;-72
2023/12/12 13:25:06;;;;;;;0.20;0.20;;;;;;;;;;5108754;28;20038;-73
2023/12/12 13:27:32;;;;;;;1.10;1.00;;;;;;;;;;5090288;28;20031;-73
2023/12/12 13:29:58;;;;;;;0.20;0.20;;;;;;;;;;5108827;28;20058;-73
2023/12/12 13:32:24;;;;;;;0.20;0.20;;;;;;;;;;5090024;28;20223;-73
2023/12/12 13:34:49;;;;;;;0.50;0.50;;;;;;;;;;5108371;28;20027;-72
2023/12/12 13:37:16;;;;;;;0.40;0.40;;;;;;;;;;5108391;28;20047;-73
2023/12/12 13:39:41;;;;;;;0.32;0.32;;;;;;;;;;5107939;28;20144;-73
2023/12/12 13:42:08;;;;;;;0.20;0.20;;;;;;;;;;5108577;28;20023;-73
2023/12/12 13:44:33;;;;;;;0.30;0.30;;;;;;;;;;5108199;28;20031;-73
2023/12/12 13:46:59;;;;;;;0.20;0.20;;;;;;;;;;5107761;28;20029;-73
2023/12/12 13:49:24;;;;;;;0.43;0.43;;;;;;;;;;5108271;28;20076;-72
2023/12/12 13:51:50;;;;;;;0.25;0.25;;;;;;;;;;5108375;28;20052;-73
2023/12/12 13:54:15;;;;;;;0.20;0.20;;;;;;;;;;5108573;28;20074;-72
2023/12/12 13:56:41;;;;;;;0.25;0.25;;;;;;;;;;5107908;28;20492;-72
2023/12/12 13:59:06;;;;;;;0.20;0.20;;;;;;;;;;5091146;28;20122;-71
2023/12/12 14:01:32;;;;;;;0.20;0.20;;;;;;;;;;5111683;28;20110;-76
2023/12/12 14:03:57;;;;;;;0.20;0.20;;;;;;;;;;5108122;28;20038;-72
2023/12/12 14:06:23;;;;;;;0.20;0.20;;;;;;;;;;5109220;28;20018;-72
2023/12/12 14:08:50;;;;;;;0.20;0.20;;;;;;;;;;5109469;28;20035;-71
2023/12/12 14:11:16;;;;;;;0.20;0.20;;;;;;;;;;5109562;28;20502;-72
2023/12/12 14:13:41;;;;;;;0.20;0.20;;;;;;;;;;5108932;28;20051;-76
2023/12/12 14:16:07;;;;;;;0.20;0.20;;;;;;;;;;5109339;28;20023;-71
2023/12/12 14:18:33;;;;;;;0.10;0.10;;;;;;;;;;5109071;28;20834;-72
2023/12/12 14:20:58;;;;;;;0.22;0.22;;;;;;;;;;5109134;28;20031;-73
2023/12/12 14:23:24;;;;;;;0.28;0.28;;;;;;;;;;5109161;28;20110;-72
2023/12/12 14:25:49;;;;;;;0.20;0.20;;;;;;;;;;5109003;28;20375;-73
2023/12/12 14:28:15;;;;;;;0.20;0.20;;;;;;;;;;5109115;28;20039;-73
2023/12/12 14:30:50;;;;;;;0.20;0.20;;;;;;;;;;5109088;28;20020;-72
2023/12/12 14:33:18;;;;;;;0.20;0.20;;;;;;;;;;5108732;28;20035;-73
2023/12/12 14:35:44;;;;;;;0.20;0.20;;;;;;;;;;5108871;28;20027;-73
2023/12/12 14:38:10;;;;;;;0.20;0.20;;;;;;;;;;5102278;28;20038;-73
2023/12/12 14:40:36;;;;;;;3.72;1.10;;;;;;;;;;5078838;28;20052;-72
2023/12/12 14:43:02;;;;;;;0.88;0.85;;;;;;;;;;5105403;28;20043;-72
2023/12/12 14:45:28;;;;;;;0.85;0.75;;;;;;;;;;5109178;28;20031;-73
2023/12/12 14:47:54;;;;;;;0.77;0.77;;;;;;;;;;5099391;28;20312;-72
2023/12/12 14:50:19;;;;;;;0.20;0.20;;;;;;;;;;5101458;28;20541;-73
2023/12/12 14:52:45;;;;;;;0.52;0.52;;;;;;;;;;5105099;28;20054;-73
2023/12/12 14:55:10;;;;;;;0.40;0.40;;;;;;;;;;5078544;28;20028;-73
2023/12/12 14:57:36;;;;;;;0.20;0.20;;;;;;;;;;5100790;28;20027;-73
2023/12/12 15:00:02;;;;;;;0.10;0.10;;;;;;;;;;5105948;28;20031;-72
2023/12/12 15:02:28;;;;;;;0.20;0.20;;;;;;;;;;5098389;28;20023;-72
2023/12/12 15:04:54;;;;;;;1.25;1.25;;;;;;;;;;5108465;28;20026;-72
2023/12/12 15:07:19;;;;;;;0.38;0.38;;;;;;;;;;5108128;28;20465;-73
2023/12/12 15:09:45;;;;;;;0.20;0.20;;;;;;;;;;5108448;28;20036;-73
2023/12/12 15:12:10;;;;;;;0.47;0.47;;;;;;;;;;5108289;28;20027;-71
2023/12/12 15:14:36;;;;;;;0.73;0.73;;;;;;;;;;5107453;28;20164;-75
2023/12/12 15:17:02;;;;;;;0.20;0.20;;;;;;;;;;5105896;28;20080;-74
2023/12/12 15:19:27;;;;;;;2.65;1.05;;;;;;;;;;5100621;28;20155;-71
2023/12/12 15:21:53;;;;;;;5.10;1.75;;;;;;;;;;5106007;28;20031;-72
2023/12/12 15:24:18;;;;;;;0.20;0.20;;;;;;;;;;5087627;28;20103;-76
2023/12/12 15:26:44;;;;;;;0.20;0.20;;;;;;;;;;5089479;28;20501;-71
2023/12/12 15:29:10;;;;;;;0.50;0.50;;;;;;;;;;5094774;28;20043;-72
2023/12/12 15:31:35;;;;;;;0.22;0.22;;;;;;;;;;5088112;28;20681;-74
2023/12/12 15:34:01;;;;;;;1.52;1.42;;;;;;;;;;5089379;28;20016;-72
2023/12/12 15:36:27;;;;;;;0.25;0.25;;;;;;;;;;5103177;28;20482;-73
2023/12/12 15:38:53;;;;;;;2.58;2.47;;;;;;;;;;5107686;28;20070;-72
2023/12/12 15:41:18;;;;;;;0.20;0.20;;;;;;;;;;5106151;28;20355;-72
2023/12/12 15:43:44;;;;;;;0.15;0.15;;;;;;;;;;5096943;28;20036;-72
2023/12/12 15:46:11;;;;;;;0.13;0.13;;;;;;;;;;5090647;28;20012;-72
2023/12/12 15:48:36;;;;;;;0.20;0.20;;;;;;;;;;5103996;28;20048;-72
2023/12/12 15:51:02;;;;;;;0.32;0.32;;;;;;;;;;5098344;28;20387;-72
2023/12/12 15:53:27;;;;;;;0.20;0.20;;;;;;;;;;5104582;28;20027;-72
2023/12/12 15:55:53;;;;;;;0.10;0.10;;;;;;;;;;5107462;28;20027;-73
2023/12/12 15:58:19;;;;;;;0.20;0.20;;;;;;;;;;5104785;28;20024;-75
2023/12/12 16:00:45;;;;;;;0.20;0.20;;;;;;;;;;5096582;28;20047;-72
2023/12/12 16:03:10;;;;;;;0.20;0.20;;;;;;;;;;5086983;28;20111;-74
2023/12/12 16:05:36;;;;;;;0.20;0.20;;;;;;;;;;5087494;28;20482;-74
2023/12/12 16:08:01;;;;;;;0.20;0.20;;;;;;;;;;5087384;28;20048;-73
2023/12/12 16:10:27;;;;;;;0.20;0.20;;;;;;;;;;5109761;28;20526;-74
2023/12/12 16:12:52;;;;;;;0.47;0.47;;;;;;;;;;5105121;28;20036;-72
2023/12/12 16:15:18;;;;;;;0.30;0.30;;;;;;;;;;5087221;28;20386;-73
2023/12/12 16:17:44;;;;;;;0.30;0.30;;;;;;;;;;5076146;28;20596;-74
2023/12/12 16:20:10;;;;;;;0.10;0.10;;;;;;;;;;5111272;28;20027;-73
2023/12/12 16:22:36;;;;;;;0.20;0.20;;;;;;;;;;5111773;28;20035;-78
2023/12/12 16:25:03;;;;;;;1.05;0.95;;;;;;;;;;5111642;28;20030;-73
2023/12/12 16:27:28;;;;;;;0.20;0.20;;;;;;;;;;5110887;28;20063;-74
2023/12/12 16:29:54;;;;;;;1.08;1.05;;;;;;;;;;5111701;28;20593;-78
2023/12/12 16:32:20;;;;;;;0.10;0.10;;;;;;;;;;5111117;28;20031;-73
2023/12/12 16:34:46;;;;;;;0.20;0.20;;;;;;;;;;5110783;28;20035;-76
2023/12/12 16:37:12;;;;;;;0.13;0.13;;;;;;;;;;5111834;28;20116;-74
2023/12/12 16:39:39;;;;;;;0.40;0.40;;;;;;;;;;5092561;28;20028;-74
2023/12/12 16:42:07;;;;;;;0.20;0.20;;;;;;;;;;5111719;28;20024;-73
2023/12/12 16:44:33;;;;;;;0.30;0.30;;;;;;;;;;5091116;28;20015;-74
2023/12/12 16:46:59;;;;;;;0.20;0.20;;;;;;;;;;5110844;28;20034;-76
2023/12/12 16:49:25;;;;;;;0.13;0.13;;;;;;;;;;5092960;28;20023;-74
2023/12/12 16:51:50;;;;;;;0.30;0.30;;;;;;;;;;5110216;28;20047;-73
2023/12/12 16:54:16;;;;;;;0.30;0.30;;;;;;;;;;5111113;28;20027;-76
2023/12/12 16:56:44;;;;;;;1.65;1.55;;;;;;;;;;5104203;28;20939;-75
2023/12/12 16:59:10;;;;;;;0.20;0.20;;;;;;;;;;5110917;28;20492;-75
2023/12/12 17:01:35;;;;;;;0.10;0.10;;;;;;;;;;5084220;28;20126;-75
2023/12/12 17:04:04;;;;;;;0.13;0.13;;;;;;;;;;5090111;28;20026;-73
2023/12/12 17:06:30;;;;;;;0.10;0.10;;;;;;;;;;5090675;28;20035;-78
2023/12/12 17:08:55;;;;;;;0.13;0.13;;;;;;;;;;5102260;28;20686;-75
2023/12/12 17:11:21;;;;;;;0.13;0.13;;;;;;;;;;5103992;28;20114;-76
2023/12/12 17:13:47;;;;;;;0.10;0.10;;;;;;;;;;5102760;28;20489;-71
2023/12/12 17:16:12;;;;;;;0.20;0.20;;;;;;;;;;5090870;28;20046;-69
2023/12/12 17:18:38;;;;;;;0.17;0.17;;;;;;;;;;5109409;28;20023;-72
2023/12/12 17:21:05;;;;;;;0.20;0.20;;;;;;;;;;5105509;28;20470;-74
2023/12/12 17:23:32;;;;;;;0.20;0.20;;;;;;;;;;5100254;28;20028;-75
2023/12/12 17:25:57;;;;;;;0.20;0.20;;;;;;;;;;5109695;28;20257;-74
2023/12/12 17:28:30;;;;;;;0.10;0.10;;;;;;;;;;5088166;28;20047;-73
2023/12/12 17:31:00;;;;;;;0.25;0.25;;;;;;;;;;5103994;27;20030;-73
2023/12/12 17:33:27;;;;;;;0.30;0.30;;;;;;;;;;5105136;28;20031;-73
2023/12/12 17:35:54;;;;;;;0.10;0.10;;;;;;;;;;5109318;28;20034;-72
2023/12/12 17:38:19;;;;;;;0.10;0.10;;;;;;;;;;5108643;28;20035;-72
2023/12/12 17:40:48;;;;;;;4.43;4.25;;;;;;;;;;5107310;28;20028;-71
2023/12/12 17:43:15;;;;;;;0.10;0.10;;;;;;;;;;5110764;27;20039;-72
2023/12/12 17:45:41;;;;;;;0.50;0.50;;;;;;;;;;5119101;27;20031;-72
2023/12/12 17:48:07;;;;;;;0.55;0.55;;;;;;;;;;5099846;28;20047;-73
2023/12/12 17:50:32;;;;;;;2.47;2.38;;;;;;;;;;5106283;28;20035;-72
2023/12/12 17:52:58;;;;;;;0.10;0.10;;;;;;;;;;5107551;28;20513;-73
2023/12/12 17:55:23;;;;;;;0.10;0.10;;;;;;;;;;5108148;28;20036;-71
2023/12/12 17:57:49;;;;;;;0.10;0.10;;;;;;;;;;5089383;28;20494;-73
2023/12/12 18:00:19;;;;;;;0.38;0.38;;;;;;;;;;5107873;28;20031;-73
2023/12/12 18:02:44;;;;;;;0.82;0.82;;;;;;;;;;5107308;28;20038;-72
2023/12/12 18:05:14;;;;;;;0.40;0.40;;;;;;;;;;5105069;28;20490;-72
2023/12/12 18:07:39;;;;;;;5.03;3.50;;;;;;;;;;5108216;28;20127;-72
2023/12/12 18:10:05;;;;;;;1.38;0.95;;;;;;;;;;5108929;28;20488;-72
2023/12/12 18:12:30;;;;;;;0.20;0.20;;;;;;;;;;5107671;28;20027;-72
2023/12/12 18:14:56;;;;;;;0.10;0.10;;;;;;;;;;5107478;28;20024;-72
2023/12/12 18:17:22;;;;;;;0.10;0.10;;;;;;;;;;5106094;28;20031;-72
2023/12/12 18:19:47;;;;;;;0.90;0.90;;;;;;;;;;5108663;28;20028;-72
2023/12/12 18:22:13;;;;;;;0.17;0.17;;;;;;;;;;5108650;28;20042;-71
2023/12/12 18:24:38;;;;;;;0.22;0.22;;;;;;;;;;5108081;28;20023;-71
2023/12/12 18:27:04;;;;;;;0.10;0.10;;;;;;;;;;5107206;28;20105;-72
2023/12/12 18:29:30;;;;;;;0.17;0.17;;;;;;;;;;5109069;28;20042;-72
2023/12/12 18:31:55;;;;;;;0.20;0.20;;;;;;;;;;5106570;28;20069;-71
2023/12/12 18:34:21;;;;;;;0.25;0.25;;;;;;;;;;5105913;28;20134;-72
2023/12/12 18:36:47;;;;;;;0.13;0.13;;;;;;;;;;5106377;28;20023;-72
2023/12/12 18:39:12;;;;;;;0.10;0.10;;;;;;;;;;5106288;28;20039;-72
2023/12/12 18:41:38;;;;;;;0.10;0.10;;;;;;;;;;5105760;28;20038;-72
2023/12/12 18:44:04;;;;;;;0.10;0.10;;;;;;;;;;5107799;28;20505;-71
2023/12/12 18:46:31;;;;;;;0.20;0.20;;;;;;;;;;5107627;28;20023;-73
2023/12/12 18:48:56;;;;;;;0.15;0.15;;;;;;;;;;5090129;28;20036;-71
2023/12/12 18:51:23;;;;;;;0.20;0.20;;;;;;;;;;5107954;28;20040;-73
2023/12/12 18:53:48;;;;;;;0.10;0.10;;;;;;;;;;5108559;28;20111;-72
2023/12/12 18:56:15;;;;;;;0.10;0.10;;;;;;;;;;5107151;28;20164;-72
2023/12/12 18:58:41;;;;;;;1.65;1.65;;;;;;;;;;5108040;28;20114;-73
2023/12/12 19:01:07;;;;;;;0.10;0.10;;;;;;;;;;5107774;28;20019;-72
2023/12/12 19:03:32;;;;;;;0.60;0.60;;;;;;;;;;5107252;28;20027;-71
2023/12/12 19:05:58;;;;;;;1.65;1.55;;;;;;;;;;5107539;28;20031;-72
2023/12/12 19:08:24;;;;;;;0.13;0.13;;;;;;;;;;5107917;28;20038;-72
2023/12/12 19:10:51;;;;;;;0.10;0.10;;;;;;;;;;5107253;28;20032;-73
2023/12/12 19:13:17;;;;;;;0.50;0.50;;;;;;;;;;5107496;28;20031;-72
2023/12/12 19:15:42;;;;;;;0.10;0.10;;;;;;;;;;5106984;28;20031;-71
2023/12/12 19:18:08;;;;;;;0.13;0.13;;;;;;;;;;5107639;28;20035;-72
2023/12/12 19:20:34;;;;;;;0.57;0.50;;;;;;;;;;5089209;28;20470;-72
2023/12/12 19:23:00;;;;;;;0.13;0.13;;;;;;;;;;5089120;28;20103;-72
2023/12/12 19:25:27;;;;;;;1.63;1.58;;;;;;;;;;5107112;28;20031;-73
2023/12/12 19:27:53;;;;;;;0.10;0.10;;;;;;;;;;5106596;28;20555;-71
2023/12/12 19:30:18;;;;;;;0.10;0.10;;;;;;;;;;5107633;28;20193;-73
2023/12/12 19:32:44;;;;;;;0.77;0.77;;;;;;;;;;5088974;28;20032;-73
2023/12/12 19:35:09;;;;;;;2.55;2.10;;;;;;;;;;5107394;28;20032;-72
2023/12/12 19:37:41;;;;;;;0.17;0.17;;;;;;;;;;5107166;28;20034;-73
2023/12/12 19:40:06;;;;;;;0.20;0.20;;;;;;;;;;5107129;28;20042;-73
2023/12/12 19:42:33;;;;;;;2.90;2.70;;;;;;;;;;5106836;28;20439;-72
2023/12/12 19:45:08;;;;;;;0.20;0.20;;;;;;;;;;5088780;28;20458;-73
2023/12/12 19:47:36;;;;;;;0.20;0.20;;;;;;;;;;5097960;28;20023;-79
2023/12/12 19:50:06;;;;;;;0.75;0.63;;;;;;;;;;5088260;28;20565;-72
2023/12/12 19:52:31;;;;;;;1.13;1.10;;;;;;;;;;5086079;28;20127;-74
2023/12/12 19:54:57;;;;;;;0.20;0.20;;;;;;;;;;5095387;28;20580;-73
2023/12/12 19:57:25;;;;;;;0.30;0.30;;;;;;;;;;5098611;28;20028;-73
2023/12/12 19:59:51;;;;;;;1.25;1.25;;;;;;;;;;5103082;28;20031;-74
2023/12/12 20:02:16;;;;;;;0.10;0.10;;;;;;;;;;5102437;28;20023;-74
2023/12/12 20:04:42;;;;;;;0.10;0.10;;;;;;;;;;5098743;28;20038;-75
2023/12/12 20:07:12;;;;;;;0.22;0.22;;;;;;;;;;5106577;28;20024;-75
2023/12/12 20:09:41;;;;;;;0.30;0.30;;;;;;;;;;5083038;28;20031;-73
2023/12/12 20:12:09;;;;;;;1.67;1.58;;;;;;;;;;5095213;28;20107;-72
2023/12/12 20:14:35;;;;;;;0.10;0.10;;;;;;;;;;5067793;28;20085;-72
2023/12/12 20:17:00;;;;;;;1.35;0.52;;;;;;;;;;5080502;28;20024;-71
2023/12/12 20:19:26;;;;;;;3.13;1.13;;;;;;;;;;5106749;28;20035;-72
2023/12/12 20:21:52;;;;;;;0.10;0.10;;;;;;;;;;5106331;28;20043;-73
2023/12/12 20:24:18;;;;;;;0.20;0.20;;;;;;;;;;5106819;28;20032;-73
2023/12/12 20:26:44;;;;;;;0.30;0.30;;;;;;;;;;5106397;28;20023;-73
2023/12/12 20:29:11;;;;;;;0.10;0.10;;;;;;;;;;5072014;28;20139;-70
2023/12/12 20:31:37;;;;;;;0.47;0.47;;;;;;;;;;5094755;28;20016;-74
2023/12/12 20:34:03;;;;;;;0.10;0.10;;;;;;;;;;5106922;28;20024;-74
2023/12/12 20:36:29;;;;;;;0.10;0.10;;;;;;;;;;5088595;28;20030;-74
2023/12/12 20:38:55;;;;;;;0.10;0.10;;;;;;;;;;5106426;28;20393;-71
2023/12/12 20:41:21;;;;;;;0.10;0.10;;;;;;;;;;5107241;28;20036;-73
2023/12/12 20:43:47;;;;;;;0.15;0.15;;;;;;;;;;5104055;28;20046;-71
2023/12/12 20:46:13;;;;;;;0.52;0.52;;;;;;;;;;5101751;28;20020;-71
2023/12/12 20:48:41;;;;;;;0.20;0.20;;;;;;;;;;5107509;28;20389;-70
2023/12/12 20:51:08;;;;;;;0.20;0.20;;;;;;;;;;5084877;28;20048;-72
2023/12/12 20:53:35;;;;;;;0.10;0.10;;;;;;;;;;5087266;28;20020;-70
2023/12/12 20:56:00;;;;;;;0.28;0.28;;;;;;;;;;5080664;28;20036;-70
2023/12/12 20:58:26;;;;;;;0.10;0.10;;;;;;;;;;5081339;28;20036;-70
2023/12/12 21:00:52;;;;;;;4.35;4.07;;;;;;;;;;5070332;28;20038;-70
2023/12/12 21:03:17;;;;;;;0.10;0.10;;;;;;;;;;5081193;28;20027;-70
2023/12/12 21:05:43;;;;;;;2.28;1.75;;;;;;;;;;5097437;28;20560;-70
2023/12/12 21:08:09;;;;;;;0.30;0.30;;;;;;;;;;5090130;28;20066;-70
2023/12/12 21:10:37;;;;;;;0.10;0.10;;;;;;;;;;5089921;28;20470;-70
2023/12/12 21:13:03;;;;;;;0.40;0.40;;;;;;;;;;5091951;28;20030;-69
2023/12/12 21:15:28;;;;;;;0.40;0.40;;;;;;;;;;5097347;28;20668;-70
2023/12/12 21:17:54;;;;;;;0.17;0.17;;;;;;;;;;5095125;28;20028;-69
2023/12/12 21:20:19;;;;;;;0.15;0.15;;;;;;;;;;5090304;28;20085;-70
2023/12/12 21:22:45;;;;;;;2.47;2.00;;;;;;;;;;5079101;28;20769;-71
2023/12/12 21:25:11;;;;;;;0.20;0.20;;;;;;;;;;5090173;28;20459;-70
2023/12/12 21:27:36;;;;;;;0.50;0.50;;;;;;;;;;5089396;28;20036;-70
2023/12/12 21:30:02;;;;;;;0.10;0.10;;;;;;;;;;5071878;28;20028;-70
2023/12/12 21:32:28;;;;;;;0.20;0.20;;;;;;;;;;5100063;28;20024;-72
2023/12/12 21:34:53;;;;;;;0.20;0.20;;;;;;;;;;5107184;28;20466;-70
2023/12/12 21:37:20;;;;;;;0.28;0.28;;;;;;;;;;5104433;28;20106;-70
2023/12/12 21:39:45;;;;;;;1.23;1.20;;;;;;;;;;5077075;28;20107;-70
2023/12/12 21:42:12;;;;;;;0.20;0.20;;;;;;;;;;5103386;28;20173;-70
2023/12/12 21:44:38;;;;;;;0.47;0.47;;;;;;;;;;5104204;28;20106;-70
2023/12/12 21:47:04;;;;;;;0.10;0.10;;;;;;;;;;5091711;28;20108;-71
2023/12/12 21:49:29;;;;;;;1.63;1.50;;;;;;;;;;5091844;28;20547;-70
2023/12/12 21:51:55;;;;;;;0.57;0.57;;;;;;;;;;5091328;28;20052;-70
2023/12/12 21:54:21;;;;;;;0.10;0.10;;;;;;;;;;5105571;28;20020;-70
2023/12/12 21:56:47;;;;;;;6.22;4.85;;;;;;;;;;5111814;28;20375;-73
2023/12/12 21:59:13;;;;;;;0.22;0.22;;;;;;;;;;5111590;28;20024;-71
2023/12/12 22:01:39;;;;;;;0.10;0.10;;;;;;;;;;5105901;28;20051;-71
2023/12/12 22:04:05;;;;;;;0.20;0.20;;;;;;;;;;5091612;28;20027;-70
2023/12/12 22:06:40;;;;;;;0.20;0.20;;;;;;;;;;5081254;28;20008;-71
2023/12/12 22:09:08;;;;;;;0.10;0.10;;;;;;;;;;5109611;28;20482;-72
2023/12/12 22:11:36;;;;;;;1.55;1.45;;;;;;;;;;5111614;28;20047;-71
2023/12/12 22:14:05;;;;;;;1.33;1.23;;;;;;;;;;5093579;28;20479;-71
2023/12/12 22:16:30;;;;;;;0.10;0.10;;;;;;;;;;5090474;28;20102;-72